sensor_id;sensor_type;location;lat;lon;timestamp;temperature;humidity
31725;DHT22;18306;40.960;14.836;2023-05-10T00:01:17;20.20;99.90
31725;DHT22;18306;40.960;14.836;2023-05-10T00:03:44;20.20;99.90
31725;DHT22;18306;40.960;14.836;2023-05-10T00:06:11;20.20;99.90
31725;DHT22;18306;40.960;14.836;2023-05-10T00:08:38;20.20;99.90
31725;DHT22;18306;40.960;14.836;2023-05-10T00:11:05;20.20;99.90
31725;DHT22;18306;40.960;14.836;2023-05-10T00:13:32;20.20;99.90
31725;DHT22;18306;40.960;14.836;2023-05-10T00:15:59;20.30;99.90
31725;DHT22;18306;40.960;14.836;2023-05-10T00:18:26;20.30;99.90
31725;DHT22;18306;40.960;14.836;2023-05-10T00:20:53;20.30;99.90
31725;DHT22;18306;40.960;14.836;2023-05-10T00:23:20;20.30;99.90
31725;DHT22;18306;40.960;14.836;2023-05-10T00:25:47;20.30;99.90
31725;DHT22;18306;40.960;14.836;2023-05-10T00:28:14;20.30;99.90
31725;DHT22;18306;40.960;14.836;2023-05-10T00:30:41;20.30;99.90
31725;DHT22;18306;40.960;14.836;2023-05-10T00:33:08;20.30;99.90
31725;DHT22;18306;40.960;14.836;2023-05-10T00:35:35;20.30;99.90
31725;DHT22;18306;40.960;14.836;2023-05-10T00:38:02;20.20;99.90
31725;DHT22;18306;40.960;14.836;2023-05-10T00:40:29;20.20;99.90
31725;DHT22;18306;40.960;14.836;2023-05-10T00:43:06;20.30;99.90
31725;DHT22;18306;40.960;14.836;2023-05-10T00:45:49;20.30;99.90
31725;DHT22;18306;40.960;14.836;2023-05-10T00:48:32;20.20;99.90
31725;DHT22;18306;40.960;14.836;2023-05-10T00:51:10;20.30;99.90
31725;DHT22;18306;40.960;14.836;2023-05-10T00:53:37;20.20;99.90
31725;DHT22;18306;40.960;14.836;2023-05-10T00:56:04;20.20;99.90
31725;DHT22;18306;40.960;14.836;2023-05-10T00:58:32;20.30;99.90
31725;DHT22;18306;40.960;14.836;2023-05-10T01:01:00;20.30;99.90
31725;DHT22;18306;40.960;14.836;2023-05-10T01:03:28;20.30;99.90
31725;DHT22;18306;40.960;14.836;2023-05-10T01:05:55;20.30;99.90
31725;DHT22;18306;40.960;14.836;2023-05-10T01:08:22;20.30;99.90
31725;DHT22;18306;40.960;14.836;2023-05-10T01:10:50;20.30;99.90
31725;DHT22;18306;40.960;14.836;2023-05-10T01:13:36;20.30;99.90
31725;DHT22;18306;40.960;14.836;2023-05-10T01:16:05;20.30;99.90
31725;DHT22;18306;40.960;14.836;2023-05-10T01:18:35;20.20;99.90
31725;DHT22;18306;40.960;14.836;2023-05-10T01:35:42;20.30;99.90
31725;DHT22;18306;40.960;14.836;2023-05-10T01:41:00;20.30;99.90
31725;DHT22;18306;40.960;14.836;2023-05-10T01:43:41;20.30;99.90
31725;DHT22;18306;40.960;14.836;2023-05-10T01:49:25;20.30;99.90
31725;DHT22;18306;40.960;14.836;2023-05-10T01:51:55;20.30;99.90
31725;DHT22;18306;40.960;14.836;2023-05-10T01:54:27;20.20;99.90
31725;DHT22;18306;40.960;14.836;2023-05-10T01:57:05;20.20;99.90
31725;DHT22;18306;40.960;14.836;2023-05-10T01:59:35;20.10;99.90
31725;DHT22;18306;40.960;14.836;2023-05-10T02:02:04;20.10;99.90
31725;DHT22;18306;40.960;14.836;2023-05-10T02:04:35;20.00;99.90
31725;DHT22;18306;40.960;14.836;2023-05-10T02:07:05;20.10;99.90
31725;DHT22;18306;40.960;14.836;2023-05-10T02:09:33;20.00;99.90
31725;DHT22;18306;40.960;14.836;2023-05-10T02:12:03;20.00;99.90
31725;DHT22;18306;40.960;14.836;2023-05-10T02:14:35;19.90;99.90
31725;DHT22;18306;40.960;14.836;2023-05-10T02:17:05;19.80;99.90
31725;DHT22;18306;40.960;14.836;2023-05-10T02:19:34;19.70;99.90
31725;DHT22;18306;40.960;14.836;2023-05-10T02:22:03;19.70;99.90
31725;DHT22;18306;40.960;14.836;2023-05-10T02:24:34;19.60;99.90
31725;DHT22;18306;40.960;14.836;2023-05-10T02:27:02;19.40;99.90
31725;DHT22;18306;40.960;14.836;2023-05-10T02:29:31;19.50;99.90
31725;DHT22;18306;40.960;14.836;2023-05-10T02:31:59;19.60;99.90
31725;DHT22;18306;40.960;14.836;2023-05-10T02:34:27;19.60;99.90
31725;DHT22;18306;40.960;14.836;2023-05-10T02:36:55;19.80;99.90
31725;DHT22;18306;40.960;14.836;2023-05-10T02:39:23;19.80;99.90
31725;DHT22;18306;40.960;14.836;2023-05-10T02:41:52;19.90;99.90
31725;DHT22;18306;40.960;14.836;2023-05-10T02:44:20;20.00;99.90
31725;DHT22;18306;40.960;14.836;2023-05-10T02:46:49;20.10;99.90
31725;DHT22;18306;40.960;14.836;2023-05-10T02:49:16;20.20;99.90
31725;DHT22;18306;40.960;14.836;2023-05-10T02:51:49;20.20;99.90
31725;DHT22;18306;40.960;14.836;2023-05-10T02:54:20;20.10;99.90
31725;DHT22;18306;40.960;14.836;2023-05-10T02:57:15;20.20;99.90
31725;DHT22;18306;40.960;14.836;2023-05-10T02:59:42;20.10;99.90
31725;DHT22;18306;40.960;14.836;2023-05-10T03:02:10;20.10;99.90
31725;DHT22;18306;40.960;14.836;2023-05-10T03:04:38;20.10;99.90
31725;DHT22;18306;40.960;14.836;2023-05-10T03:07:05;20.00;99.90
31725;DHT22;18306;40.960;14.836;2023-05-10T03:09:32;20.10;99.90
31725;DHT22;18306;40.960;14.836;2023-05-10T03:12:04;20.00;99.90
31725;DHT22;18306;40.960;14.836;2023-05-10T03:14:55;20.00;99.90
31725;DHT22;18306;40.960;14.836;2023-05-10T03:20:31;19.90;99.90
31725;DHT22;18306;40.960;14.836;2023-05-10T03:23:12;19.90;99.90
31725;DHT22;18306;40.960;14.836;2023-05-10T03:25:41;20.00;99.90
31725;DHT22;18306;40.960;14.836;2023-05-10T03:28:12;19.90;99.90
31725;DHT22;18306;40.960;14.836;2023-05-10T03:30:40;20.00;99.90
31725;DHT22;18306;40.960;14.836;2023-05-10T03:33:08;20.10;99.90
31725;DHT22;18306;40.960;14.836;2023-05-10T03:35:39;20.10;99.90
31725;DHT22;18306;40.960;14.836;2023-05-10T03:38:06;20.10;99.90
31725;DHT22;18306;40.960;14.836;2023-05-10T03:40:34;20.20;99.90
31725;DHT22;18306;40.960;14.836;2023-05-10T03:43:01;20.20;99.90
31725;DHT22;18306;40.960;14.836;2023-05-10T03:45:28;20.20;99.90
31725;DHT22;18306;40.960;14.836;2023-05-10T03:47:55;20.20;99.90
31725;DHT22;18306;40.960;14.836;2023-05-10T03:50:22;20.30;99.90
31725;DHT22;18306;40.960;14.836;2023-05-10T03:52:49;20.30;99.90
31725;DHT22;18306;40.960;14.836;2023-05-10T03:55:16;20.30;99.90
31725;DHT22;18306;40.960;14.836;2023-05-10T03:57:44;20.40;99.90
31725;DHT22;18306;40.960;14.836;2023-05-10T04:00:11;20.40;99.90
31725;DHT22;18306;40.960;14.836;2023-05-10T04:02:41;20.50;99.90
31725;DHT22;18306;40.960;14.836;2023-05-10T04:05:12;20.50;99.90
31725;DHT22;18306;40.960;14.836;2023-05-10T04:07:39;20.50;99.90
31725;DHT22;18306;40.960;14.836;2023-05-10T04:10:06;20.40;99.90
31725;DHT22;18306;40.960;14.836;2023-05-10T04:12:34;20.40;99.90
31725;DHT22;18306;40.960;14.836;2023-05-10T04:15:01;20.40;99.90
31725;DHT22;18306;40.960;14.836;2023-05-10T04:17:28;20.40;99.90
31725;DHT22;18306;40.960;14.836;2023-05-10T04:19:56;20.30;99.90
31725;DHT22;18306;40.960;14.836;2023-05-10T04:22:22;20.40;99.90
31725;DHT22;18306;40.960;14.836;2023-05-10T04:24:50;20.50;99.90
31725;DHT22;18306;40.960;14.836;2023-05-10T04:27:16;20.50;99.90
31725;DHT22;18306;40.960;14.836;2023-05-10T04:29:44;20.50;99.90
31725;DHT22;18306;40.960;14.836;2023-05-10T04:32:11;20.60;99.90
31725;DHT22;18306;40.960;14.836;2023-05-10T04:34:37;20.50;99.90
31725;DHT22;18306;40.960;14.836;2023-05-10T04:37:05;20.50;99.90
31725;DHT22;18306;40.960;14.836;2023-05-10T04:39:32;20.60;99.90
31725;DHT22;18306;40.960;14.836;2023-05-10T04:41:59;20.60;99.90
31725;DHT22;18306;40.960;14.836;2023-05-10T04:44:26;20.60;99.90
31725;DHT22;18306;40.960;14.836;2023-05-10T04:46:53;20.60;99.90
31725;DHT22;18306;40.960;14.836;2023-05-10T04:49:20;20.50;99.90
31725;DHT22;18306;40.960;14.836;2023-05-10T04:51:47;20.40;99.90
31725;DHT22;18306;40.960;14.836;2023-05-10T04:54:14;20.40;99.90
31725;DHT22;18306;40.960;14.836;2023-05-10T04:56:41;20.40;99.90
31725;DHT22;18306;40.960;14.836;2023-05-10T04:59:08;20.50;99.90
31725;DHT22;18306;40.960;14.836;2023-05-10T05:01:35;20.60;99.90
31725;DHT22;18306;40.960;14.836;2023-05-10T05:04:02;20.60;99.90
31725;DHT22;18306;40.960;14.836;2023-05-10T05:06:29;20.70;99.90
31725;DHT22;18306;40.960;14.836;2023-05-10T05:08:56;20.70;99.90
31725;DHT22;18306;40.960;14.836;2023-05-10T05:11:23;20.70;99.90
31725;DHT22;18306;40.960;14.836;2023-05-10T05:13:51;20.80;99.90
31725;DHT22;18306;40.960;14.836;2023-05-10T05:16:18;20.80;99.90
31725;DHT22;18306;40.960;14.836;2023-05-10T05:18:45;20.80;99.90
31725;DHT22;18306;40.960;14.836;2023-05-10T05:21:16;20.80;99.90
31725;DHT22;18306;40.960;14.836;2023-05-10T05:23:44;20.80;99.90
31725;DHT22;18306;40.960;14.836;2023-05-10T05:26:11;20.80;99.90
31725;DHT22;18306;40.960;14.836;2023-05-10T05:28:38;20.90;99.90
31725;DHT22;18306;40.960;14.836;2023-05-10T05:31:05;20.90;99.90
31725;DHT22;18306;40.960;14.836;2023-05-10T05:33:33;20.90;99.90
31725;DHT22;18306;40.960;14.836;2023-05-10T05:36:04;20.90;99.90
31725;DHT22;18306;40.960;14.836;2023-05-10T05:38:32;21.00;99.90
31725;DHT22;18306;40.960;14.836;2023-05-10T05:40:59;21.00;99.90
31725;DHT22;18306;40.960;14.836;2023-05-10T05:43:26;21.10;99.90
31725;DHT22;18306;40.960;14.836;2023-05-10T05:45:53;21.10;99.90
31725;DHT22;18306;40.960;14.836;2023-05-10T05:48:21;21.20;99.90
31725;DHT22;18306;40.960;14.836;2023-05-10T05:50:48;21.20;99.90
31725;DHT22;18306;40.960;14.836;2023-05-10T05:53:15;21.30;99.90
31725;DHT22;18306;40.960;14.836;2023-05-10T05:55:55;21.30;99.90
31725;DHT22;18306;40.960;14.836;2023-05-10T05:58:24;21.30;99.90
31725;DHT22;18306;40.960;14.836;2023-05-10T06:00:52;21.30;99.90
31725;DHT22;18306;40.960;14.836;2023-05-10T06:03:19;21.40;99.90
31725;DHT22;18306;40.960;14.836;2023-05-10T06:05:46;21.50;99.90
31725;DHT22;18306;40.960;14.836;2023-05-10T06:08:13;21.60;99.90
31725;DHT22;18306;40.960;14.836;2023-05-10T06:10:40;21.70;99.90
31725;DHT22;18306;40.960;14.836;2023-05-10T06:13:07;21.70;99.90
31725;DHT22;18306;40.960;14.836;2023-05-10T06:15:34;21.80;99.90
31725;DHT22;18306;40.960;14.836;2023-05-10T06:18:01;21.80;99.90
31725;DHT22;18306;40.960;14.836;2023-05-10T06:20:28;21.80;99.90
31725;DHT22;18306;40.960;14.836;2023-05-10T06:22:58;21.80;99.90
31725;DHT22;18306;40.960;14.836;2023-05-10T06:25:25;21.70;99.90
31725;DHT22;18306;40.960;14.836;2023-05-10T06:27:52;21.60;99.90
31725;DHT22;18306;40.960;14.836;2023-05-10T06:30:24;21.60;99.90
31725;DHT22;18306;40.960;14.836;2023-05-10T06:32:55;21.40;99.90
31725;DHT22;18306;40.960;14.836;2023-05-10T06:35:22;21.40;99.90
31725;DHT22;18306;40.960;14.836;2023-05-10T06:37:50;21.30;99.90
31725;DHT22;18306;40.960;14.836;2023-05-10T06:40:18;21.30;99.90
31725;DHT22;18306;40.960;14.836;2023-05-10T06:42:46;21.20;99.90
31725;DHT22;18306;40.960;14.836;2023-05-10T06:45:14;21.20;99.90
31725;DHT22;18306;40.960;14.836;2023-05-10T06:47:42;21.20;99.90
31725;DHT22;18306;40.960;14.836;2023-05-10T06:50:10;21.30;99.90
31725;DHT22;18306;40.960;14.836;2023-05-10T06:52:38;21.40;99.90
31725;DHT22;18306;40.960;14.836;2023-05-10T06:55:05;21.40;99.90
31725;DHT22;18306;40.960;14.836;2023-05-10T06:57:33;21.40;99.90
31725;DHT22;18306;40.960;14.836;2023-05-10T07:00:00;21.40;99.90
31725;DHT22;18306;40.960;14.836;2023-05-10T07:02:29;21.30;99.90
31725;DHT22;18306;40.960;14.836;2023-05-10T07:04:56;21.20;99.90
31725;DHT22;18306;40.960;14.836;2023-05-10T07:07:23;21.20;99.90
31725;DHT22;18306;40.960;14.836;2023-05-10T07:09:50;21.20;99.90
31725;DHT22;18306;40.960;14.836;2023-05-10T07:12:17;21.20;99.90
31725;DHT22;18306;40.960;14.836;2023-05-10T07:14:44;21.20;99.90
31725;DHT22;18306;40.960;14.836;2023-05-10T07:17:14;21.10;99.90
31725;DHT22;18306;40.960;14.836;2023-05-10T07:19:42;21.10;99.90
31725;DHT22;18306;40.960;14.836;2023-05-10T07:22:09;21.00;99.90
31725;DHT22;18306;40.960;14.836;2023-05-10T07:24:37;21.10;99.90
31725;DHT22;18306;40.960;14.836;2023-05-10T07:27:04;21.20;99.90
31725;DHT22;18306;40.960;14.836;2023-05-10T07:29:40;21.30;99.90
31725;DHT22;18306;40.960;14.836;2023-05-10T07:32:06;21.40;99.90
31725;DHT22;18306;40.960;14.836;2023-05-10T07:34:35;21.40;99.90
31725;DHT22;18306;40.960;14.836;2023-05-10T07:37:09;21.40;99.90
31725;DHT22;18306;40.960;14.836;2023-05-10T07:39:42;21.40;99.90
31725;DHT22;18306;40.960;14.836;2023-05-10T07:42:13;21.40;99.90
31725;DHT22;18306;40.960;14.836;2023-05-10T07:44:43;21.40;99.90
31725;DHT22;18306;40.960;14.836;2023-05-10T07:47:10;21.20;99.90
31725;DHT22;18306;40.960;14.836;2023-05-10T07:49:37;21.30;99.90
31725;DHT22;18306;40.960;14.836;2023-05-10T07:52:13;21.30;99.90
31725;DHT22;18306;40.960;14.836;2023-05-10T07:54:40;21.30;99.90
31725;DHT22;18306;40.960;14.836;2023-05-10T07:57:15;21.30;99.90
31725;DHT22;18306;40.960;14.836;2023-05-10T07:59:47;21.40;99.90
31725;DHT22;18306;40.960;14.836;2023-05-10T08:02:16;21.40;99.90
31725;DHT22;18306;40.960;14.836;2023-05-10T08:04:42;21.50;99.90
31725;DHT22;18306;40.960;14.836;2023-05-10T08:07:10;21.40;99.90
31725;DHT22;18306;40.960;14.836;2023-05-10T08:09:37;21.40;99.90
31725;DHT22;18306;40.960;14.836;2023-05-10T08:12:05;21.40;99.90
31725;DHT22;18306;40.960;14.836;2023-05-10T08:14:32;21.40;99.90
31725;DHT22;18306;40.960;14.836;2023-05-10T08:16:59;21.30;99.90
31725;DHT22;18306;40.960;14.836;2023-05-10T08:19:26;21.30;99.90
31725;DHT22;18306;40.960;14.836;2023-05-10T08:21:53;21.30;99.90
31725;DHT22;18306;40.960;14.836;2023-05-10T08:24:33;21.20;99.90
31725;DHT22;18306;40.960;14.836;2023-05-10T08:27:05;21.30;99.90
31725;DHT22;18306;40.960;14.836;2023-05-10T08:29:32;21.30;99.90
31725;DHT22;18306;40.960;14.836;2023-05-10T08:31:59;21.40;99.90
31725;DHT22;18306;40.960;14.836;2023-05-10T08:34:27;21.50;99.90
31725;DHT22;18306;40.960;14.836;2023-05-10T08:36:54;21.50;99.90
31725;DHT22;18306;40.960;14.836;2023-05-10T08:39:21;21.40;99.90
31725;DHT22;18306;40.960;14.836;2023-05-10T08:41:51;21.50;99.90
31725;DHT22;18306;40.960;14.836;2023-05-10T08:44:32;21.60;99.90
31725;DHT22;18306;40.960;14.836;2023-05-10T08:47:06;21.80;99.90
31725;DHT22;18306;40.960;14.836;2023-05-10T08:49:34;21.90;99.90
31725;DHT22;18306;40.960;14.836;2023-05-10T08:52:03;21.90;99.90
31725;DHT22;18306;40.960;14.836;2023-05-10T08:54:32;21.80;99.90
31725;DHT22;18306;40.960;14.836;2023-05-10T08:57:00;21.70;99.90
31725;DHT22;18306;40.960;14.836;2023-05-10T08:59:27;21.60;99.90
31725;DHT22;18306;40.960;14.836;2023-05-10T09:01:57;21.50;99.90
31725;DHT22;18306;40.960;14.836;2023-05-10T09:04:26;21.40;99.90
31725;DHT22;18306;40.960;14.836;2023-05-10T09:06:53;21.30;99.90
31725;DHT22;18306;40.960;14.836;2023-05-10T09:09:21;21.20;99.90
31725;DHT22;18306;40.960;14.836;2023-05-10T09:11:50;21.10;99.90
31725;DHT22;18306;40.960;14.836;2023-05-10T09:14:19;21.10;99.90
31725;DHT22;18306;40.960;14.836;2023-05-10T09:16:48;21.10;99.90
31725;DHT22;18306;40.960;14.836;2023-05-10T09:19:16;21.10;99.90
31725;DHT22;18306;40.960;14.836;2023-05-10T09:21:43;21.10;99.90
31725;DHT22;18306;40.960;14.836;2023-05-10T09:24:11;21.20;99.90
31725;DHT22;18306;40.960;14.836;2023-05-10T09:26:48;21.20;99.90
31725;DHT22;18306;40.960;14.836;2023-05-10T09:29:15;21.30;99.90
31725;DHT22;18306;40.960;14.836;2023-05-10T09:31:51;21.30;99.90
31725;DHT22;18306;40.960;14.836;2023-05-10T09:34:19;21.30;99.90
31725;DHT22;18306;40.960;14.836;2023-05-10T09:36:53;21.30;99.90
31725;DHT22;18306;40.960;14.836;2023-05-10T09:39:20;21.30;99.90
31725;DHT22;18306;40.960;14.836;2023-05-10T09:41:47;21.40;99.90
31725;DHT22;18306;40.960;14.836;2023-05-10T09:44:17;21.30;99.90
31725;DHT22;18306;40.960;14.836;2023-05-10T09:46:50;21.30;99.90
31725;DHT22;18306;40.960;14.836;2023-05-10T09:49:21;21.30;99.90
31725;DHT22;18306;40.960;14.836;2023-05-10T09:52:05;21.30;99.90
31725;DHT22;18306;40.960;14.836;2023-05-10T09:54:33;21.40;99.90
31725;DHT22;18306;40.960;14.836;2023-05-10T09:57:01;21.50;99.90
31725;DHT22;18306;40.960;14.836;2023-05-10T09:59:29;21.60;99.90
31725;DHT22;18306;40.960;14.836;2023-05-10T10:01:58;21.80;99.90
31725;DHT22;18306;40.960;14.836;2023-05-10T10:04:26;21.80;99.90
31725;DHT22;18306;40.960;14.836;2023-05-10T10:07:01;21.80;99.90
31725;DHT22;18306;40.960;14.836;2023-05-10T10:09:29;21.80;99.90
31725;DHT22;18306;40.960;14.836;2023-05-10T10:11:56;21.80;99.90
31725;DHT22;18306;40.960;14.836;2023-05-10T10:14:24;21.90;99.90
31725;DHT22;18306;40.960;14.836;2023-05-10T10:16:51;21.80;99.90
31725;DHT22;18306;40.960;14.836;2023-05-10T10:19:19;21.80;99.90
31725;DHT22;18306;40.960;14.836;2023-05-10T10:21:47;21.80;99.90
31725;DHT22;18306;40.960;14.836;2023-05-10T10:24:15;21.80;99.90
31725;DHT22;18306;40.960;14.836;2023-05-10T10:26:42;21.80;99.90
31725;DHT22;18306;40.960;14.836;2023-05-10T10:29:39;21.90;99.90
31725;DHT22;18306;40.960;14.836;2023-05-10T10:32:23;21.90;99.90
31725;DHT22;18306;40.960;14.836;2023-05-10T10:34:54;21.80;99.90
31725;DHT22;18306;40.960;14.836;2023-05-10T10:37:22;21.80;99.90
31725;DHT22;18306;40.960;14.836;2023-05-10T10:39:55;21.90;99.90
31725;DHT22;18306;40.960;14.836;2023-05-10T10:42:46;21.80;99.90
31725;DHT22;18306;40.960;14.836;2023-05-10T10:45:14;21.80;99.90
31725;DHT22;18306;40.960;14.836;2023-05-10T10:47:41;21.90;99.90
31725;DHT22;18306;40.960;14.836;2023-05-10T10:50:09;21.90;99.90
31725;DHT22;18306;40.960;14.836;2023-05-10T10:52:39;21.90;99.90
31725;DHT22;18306;40.960;14.836;2023-05-10T10:55:21;21.80;99.90
31725;DHT22;18306;40.960;14.836;2023-05-10T10:57:56;21.80;99.90
31725;DHT22;18306;40.960;14.836;2023-05-10T11:00:37;21.80;99.90
31725;DHT22;18306;40.960;14.836;2023-05-10T11:03:10;21.70;99.90
31725;DHT22;18306;40.960;14.836;2023-05-10T11:05:44;21.80;99.90
31725;DHT22;18306;40.960;14.836;2023-05-10T11:08:44;21.80;99.90
31725;DHT22;18306;40.960;14.836;2023-05-10T11:11:14;21.80;99.90
31725;DHT22;18306;40.960;14.836;2023-05-10T11:13:46;21.80;99.90
31725;DHT22;18306;40.960;14.836;2023-05-10T11:16:22;21.80;99.90
31725;DHT22;18306;40.960;14.836;2023-05-10T11:19:07;21.80;99.90
31725;DHT22;18306;40.960;14.836;2023-05-10T11:21:46;21.80;99.90
31725;DHT22;18306;40.960;14.836;2023-05-10T11:24:16;21.70;99.90
31725;DHT22;18306;40.960;14.836;2023-05-10T11:26:43;21.60;99.90
31725;DHT22;18306;40.960;14.836;2023-05-10T11:29:13;21.50;99.90
31725;DHT22;18306;40.960;14.836;2023-05-10T11:31:48;21.50;99.90
31725;DHT22;18306;40.960;14.836;2023-05-10T11:34:28;21.60;99.90
31725;DHT22;18306;40.960;14.836;2023-05-10T11:36:57;21.60;99.90
31725;DHT22;18306;40.960;14.836;2023-05-10T11:39:29;21.50;99.90
31725;DHT22;18306;40.960;14.836;2023-05-10T11:42:01;21.30;99.90
31725;DHT22;18306;40.960;14.836;2023-05-10T11:44:36;21.10;99.90
31725;DHT22;18306;40.960;14.836;2023-05-10T11:47:13;21.10;99.90
31725;DHT22;18306;40.960;14.836;2023-05-10T11:49:46;21.10;99.90
31725;DHT22;18306;40.960;14.836;2023-05-10T11:52:13;21.00;99.90
31725;DHT22;18306;40.960;14.836;2023-05-10T11:54:53;21.00;99.90
31725;DHT22;18306;40.960;14.836;2023-05-10T11:57:26;21.00;99.90
31725;DHT22;18306;40.960;14.836;2023-05-10T12:00:06;20.90;99.90
31725;DHT22;18306;40.960;14.836;2023-05-10T12:02:34;21.00;99.90
31725;DHT22;18306;40.960;14.836;2023-05-10T12:05:03;21.00;99.90
31725;DHT22;18306;40.960;14.836;2023-05-10T12:07:30;21.00;99.90
31725;DHT22;18306;40.960;14.836;2023-05-10T12:10:09;20.90;99.90
31725;DHT22;18306;40.960;14.836;2023-05-10T12:12:38;20.80;99.90
31725;DHT22;18306;40.960;14.836;2023-05-10T12:15:31;20.70;99.90
31725;DHT22;18306;40.960;14.836;2023-05-10T12:17:57;20.50;99.90
31725;DHT22;18306;40.960;14.836;2023-05-10T12:20:27;20.50;99.90
31725;DHT22;18306;40.960;14.836;2023-05-10T12:22:57;20.40;99.90
31725;DHT22;18306;40.960;14.836;2023-05-10T12:25:31;20.40;99.90
31725;DHT22;18306;40.960;14.836;2023-05-10T12:28:00;20.40;99.90
31725;DHT22;18306;40.960;14.836;2023-05-10T12:30:31;20.20;99.90
31725;DHT22;18306;40.960;14.836;2023-05-10T12:33:12;20.20;99.90
31725;DHT22;18306;40.960;14.836;2023-05-10T12:36:08;20.20;99.90
31725;DHT22;18306;40.960;14.836;2023-05-10T12:38:38;20.10;99.90
31725;DHT22;18306;40.960;14.836;2023-05-10T12:41:09;20.10;99.90
31725;DHT22;18306;40.960;14.836;2023-05-10T12:43:47;20.20;99.90
31725;DHT22;18306;40.960;14.836;2023-05-10T12:46:20;20.20;99.90
31725;DHT22;18306;40.960;14.836;2023-05-10T12:48:49;20.30;99.90
31725;DHT22;18306;40.960;14.836;2023-05-10T12:51:22;20.10;99.90
31725;DHT22;18306;40.960;14.836;2023-05-10T12:53:53;20.20;99.90
31725;DHT22;18306;40.960;14.836;2023-05-10T12:56:23;20.10;99.90
31725;DHT22;18306;40.960;14.836;2023-05-10T12:58:50;20.20;99.90
31725;DHT22;18306;40.960;14.836;2023-05-10T13:01:18;20.30;99.90
31725;DHT22;18306;40.960;14.836;2023-05-10T13:03:45;20.30;99.90
31725;DHT22;18306;40.960;14.836;2023-05-10T13:06:13;20.40;99.90
31725;DHT22;18306;40.960;14.836;2023-05-10T13:08:41;20.60;99.90
31725;DHT22;18306;40.960;14.836;2023-05-10T13:11:08;20.60;99.90
31725;DHT22;18306;40.960;14.836;2023-05-10T13:13:36;20.60;99.90
31725;DHT22;18306;40.960;14.836;2023-05-10T13:16:03;20.70;99.90
31725;DHT22;18306;40.960;14.836;2023-05-10T13:18:30;20.70;99.90
31725;DHT22;18306;40.960;14.836;2023-05-10T13:20:58;20.80;99.90
31725;DHT22;18306;40.960;14.836;2023-05-10T13:23:25;20.80;99.90
31725;DHT22;18306;40.960;14.836;2023-05-10T13:25:52;20.90;99.90
31725;DHT22;18306;40.960;14.836;2023-05-10T13:28:20;20.90;99.90
31725;DHT22;18306;40.960;14.836;2023-05-10T13:30:47;20.90;99.90
31725;DHT22;18306;40.960;14.836;2023-05-10T13:33:15;20.90;99.90
31725;DHT22;18306;40.960;14.836;2023-05-10T13:35:43;20.90;99.90
31725;DHT22;18306;40.960;14.836;2023-05-10T13:38:15;21.10;99.90
31725;DHT22;18306;40.960;14.836;2023-05-10T13:40:43;21.30;99.90
31725;DHT22;18306;40.960;14.836;2023-05-10T13:43:24;21.30;99.90
31725;DHT22;18306;40.960;14.836;2023-05-10T13:45:51;21.40;99.90
31725;DHT22;18306;40.960;14.836;2023-05-10T13:48:20;21.40;99.90
31725;DHT22;18306;40.960;14.836;2023-05-10T13:50:47;21.40;99.90
31725;DHT22;18306;40.960;14.836;2023-05-10T13:53:14;21.50;99.90
31725;DHT22;18306;40.960;14.836;2023-05-10T13:55:41;21.50;99.90
31725;DHT22;18306;40.960;14.836;2023-05-10T13:58:46;21.40;99.90
31725;DHT22;18306;40.960;14.836;2023-05-10T14:01:14;21.60;99.90
31725;DHT22;18306;40.960;14.836;2023-05-10T14:03:41;21.50;99.90
31725;DHT22;18306;40.960;14.836;2023-05-10T14:06:08;21.50;99.90
31725;DHT22;18306;40.960;14.836;2023-05-10T14:08:36;21.40;99.90
31725;DHT22;18306;40.960;14.836;2023-05-10T14:11:03;21.30;99.90
31725;DHT22;18306;40.960;14.836;2023-05-10T14:13:30;21.20;99.90
31725;DHT22;18306;40.960;14.836;2023-05-10T14:15:57;21.20;99.90
31725;DHT22;18306;40.960;14.836;2023-05-10T14:18:27;21.20;99.90
31725;DHT22;18306;40.960;14.836;2023-05-10T14:20:55;21.30;99.90
31725;DHT22;18306;40.960;14.836;2023-05-10T14:23:22;21.40;99.90
31725;DHT22;18306;40.960;14.836;2023-05-10T14:25:55;21.50;99.90
31725;DHT22;18306;40.960;14.836;2023-05-10T14:28:25;21.60;99.90
31725;DHT22;18306;40.960;14.836;2023-05-10T14:30:53;21.60;99.90
31725;DHT22;18306;40.960;14.836;2023-05-10T14:33:20;21.60;99.90
31725;DHT22;18306;40.960;14.836;2023-05-10T14:35:48;21.60;99.90
31725;DHT22;18306;40.960;14.836;2023-05-10T14:38:15;21.50;99.90
31725;DHT22;18306;40.960;14.836;2023-05-10T14:40:42;21.40;99.90
31725;DHT22;18306;40.960;14.836;2023-05-10T14:43:09;21.40;99.90
31725;DHT22;18306;40.960;14.836;2023-05-10T14:45:36;21.30;99.90
31725;DHT22;18306;40.960;14.836;2023-05-10T14:48:03;21.30;99.90
31725;DHT22;18306;40.960;14.836;2023-05-10T14:50:31;21.40;99.90
31725;DHT22;18306;40.960;14.836;2023-05-10T14:52:58;21.30;99.90
31725;DHT22;18306;40.960;14.836;2023-05-10T14:55:25;20.80;99.90
31725;DHT22;18306;40.960;14.836;2023-05-10T14:57:52;21.10;99.90
31725;DHT22;18306;40.960;14.836;2023-05-10T15:00:20;21.10;99.90
31725;DHT22;18306;40.960;14.836;2023-05-10T15:02:47;21.20;99.90
31725;DHT22;18306;40.960;14.836;2023-05-10T15:05:14;21.10;99.90
31725;DHT22;18306;40.960;14.836;2023-05-10T15:07:42;21.10;99.90
31725;DHT22;18306;40.960;14.836;2023-05-10T15:10:10;21.10;99.90
31725;DHT22;18306;40.960;14.836;2023-05-10T15:12:38;21.00;99.90
31725;DHT22;18306;40.960;14.836;2023-05-10T15:15:06;20.80;99.90
31725;DHT22;18306;40.960;14.836;2023-05-10T15:17:33;20.80;99.90
31725;DHT22;18306;40.960;14.836;2023-05-10T15:20:01;20.90;99.90
31725;DHT22;18306;40.960;14.836;2023-05-10T15:22:31;21.00;99.90
31725;DHT22;18306;40.960;14.836;2023-05-10T15:25:01;21.00;99.90
31725;DHT22;18306;40.960;14.836;2023-05-10T15:27:28;21.00;99.90
31725;DHT22;18306;40.960;14.836;2023-05-10T15:29:55;20.90;99.90
31725;DHT22;18306;40.960;14.836;2023-05-10T15:32:27;21.10;99.90
31725;DHT22;18306;40.960;14.836;2023-05-10T15:34:55;21.10;99.90
31725;DHT22;18306;40.960;14.836;2023-05-10T15:37:23;21.10;99.90
31725;DHT22;18306;40.960;14.836;2023-05-10T15:39:51;21.10;99.90
31725;DHT22;18306;40.960;14.836;2023-05-10T15:42:18;21.10;99.90
31725;DHT22;18306;40.960;14.836;2023-05-10T15:44:45;21.10;99.90
31725;DHT22;18306;40.960;14.836;2023-05-10T15:47:16;20.80;99.90
31725;DHT22;18306;40.960;14.836;2023-05-10T15:49:44;20.90;99.90
31725;DHT22;18306;40.960;14.836;2023-05-10T15:52:11;21.00;99.90
31725;DHT22;18306;40.960;14.836;2023-05-10T15:54:38;21.00;99.90